CCGS Terry Fox — CGTF — position and weather

sailwx.info

Track history (hours):
 
Tides and Currents Weather Stations Pressure Air Temp Water Temp Dewpoint Dewpoint Depression Visibility Wind Speed Wind Dir Waves Ship Positions

Oceanographic research ship CCGS Terry Fox (Canada)

Detailed information on ship capabilities available from ARCUS's ALIAS (Arctic Logistics Information and Support) project.

Last reported at 2018-Apr-26 07:00 UTC. Time now 2018-Apr-26 07:55 UTC.
Position N 50°24' W 055°48'.

Length 88 m; beam 17.82 m; draft 2 m.

MMSI: 316122000.

Wind from 170 at 4 knots

Barometer 1020.8 mb
Air temperature 3.2 ° C
Dewpoint -0.9 ° C

Date/timePositionNaut miles runAvg speedWind from/ knotsBaromVisibWave heightAir tempDewpointWater temp
2018-Apr-26 07:00N 50°24' W 055°48'10 4.9 170 / 41020.8 3.2-0.9
2018-Apr-26 05:00N 50°18' W 055°36'7 7.1 210 / 111019.6 5.0-0.7
2018-Apr-26 04:00N 50°12' W 055°30'7 7.1 190 / 71019.7 4.7-0.7
2018-Apr-26 03:00N 50°06' W 055°24'7 7.1 230 / 141019.6 8.6-0.4
2018-Apr-26 02:00N 50°00' W 055°18'7 7.1 210 / 121019.7 4.3-0.7
2018-Apr-26 01:00N 49°54' W 055°12'6 6.0 220 / 161019.9 6.0-0.4
2018-Apr-26 00:00N 49°48' W 055°12'4 3.9 230 / 171019.4 7.5-0.3
2018-Apr-25 23:00N 49°48' W 055°06'10 9.8 220 / 171018.9 8.1-0.4
2018-Apr-25 22:00N 49°42' W 054°54'1212.0 210 / 91018.6 14.3-3.0
2018-Apr-25 21:00N 49°30' W 054°54'7 7.2 220 / 51018.0 15.0-2.5
2018-Apr-25 20:00N 49°24' W 054°48'0 0.0 240 / 111018.0 17.6-3.2
2018-Apr-25 19:00N 49°24' W 054°48'0 0.0 260 / 61017.9 16.6-2.8
2018-Apr-25 18:00N 49°24' W 054°48'0 0.0 250 / 81017.6 17.9-4.2
2018-Apr-25 17:00N 49°24' W 054°48'0 0.0 250 / 71017.7 17.0-2.9
2018-Apr-25 16:00N 49°24' W 054°48'0 0.0 240 / 101017.8 15.4-2.8
2018-Apr-25 15:00N 49°24' W 054°48'0 0.0 050 / 21018.2 11.4-2.5
2018-Apr-25 14:00N 49°24' W 054°48'0 0.0 240 / 31018.6 11.1-2.9
2018-Apr-25 13:00N 49°24' W 054°48'0 0.0 200 / 51018.9 8.6-2.4
2018-Apr-25 12:00N 49°24' W 054°48'0 0.0 210 / 61018.9 7.4-2.1
2018-Apr-25 11:00N 49°24' W 054°48'0 0.0 180 / 61018.7 6.0-2.4
2018-Apr-25 10:00N 49°24' W 054°48'0 0.0 190 / 81018.3 5.4-2.8
2018-Apr-25 09:00N 49°24' W 054°48'0 0.0 190 / 91017.8 5.0-3.1
2018-Apr-25 08:00N 49°24' W 054°48'0 0.0 180 / 91017.7 5.0-3.3
2018-Apr-25 07:00N 49°24' W 054°48'0 0.0 170 / 61017.8 4.4-2.9
2018-Apr-25 06:00N 49°24' W 054°48'0 0.0 190 / 81017.7 4.7-2.9
2018-Apr-25 05:00N 49°24' W 054°48'0 0.0 170 / 81017.4 4.5-3.1
2018-Apr-25 04:00N 49°24' W 054°48'0 0.0 210 / 131017.6 5.5-3.5
2018-Apr-25 03:00N 49°24' W 054°48'0 0.0 220 / 151017.6 6.2-3.6
2018-Apr-25 02:00N 49°24' W 054°48'0 0.0 220 / 181017.3 6.8-3.9
2018-Apr-25 01:00N 49°24' W 054°48'0 0.0 220 / 171017.5 7.5-4.7
2018-Apr-25 00:00N 49°24' W 054°48'0 0.0 210 / 141017.6 9.0-6.2
2018-Apr-24 23:00N 49°24' W 054°48'0 0.0 210 / 141017.3 10.5-6.7
2018-Apr-24 22:00N 49°24' W 054°48'0 0.0 210 / 171016.8 11.8-6.3
2018-Apr-24 21:00N 49°24' W 054°48'0 0.0 220 / 181017.2 12.3-6.0
2018-Apr-24 20:00N 49°24' W 054°48'0 0.0 220 / 161017.6 12.3-5.7
2018-Apr-24 19:00N 49°24' W 054°48'0 0.0 220 / 191017.8 12.1-5.6
2018-Apr-24 18:00N 49°24' W 054°48'0 0.0 220 / 191018.3 12.0-5.7
2018-Apr-24 17:00N 49°24' W 054°48'0 0.0 240 / 161019.1 12.4-5.9
2018-Apr-24 16:00N 49°24' W 054°48'0 0.0 240 / 201019.8 11.7-6.4
2018-Apr-24 15:00N 49°24' W 054°48'0 0.0 240 / 191020.4 10.4-5.8
2018-Apr-24 14:00N 49°24' W 054°48'0 0.0 240 / 161020.9 8.6-5.8
2018-Apr-24 13:00N 49°24' W 054°48'0 0.0 240 / 181021.2 7.2-5.2
2018-Apr-24 12:00N 49°24' W 054°48'0 0.0 250 / 191021.5 5.3-4.5
2018-Apr-24 11:00N 49°24' W 054°48'0 0.0 200 / 51022.2 2.8-4.1
2018-Apr-24 10:00N 49°24' W 054°48'0 0.0 180 / 61022.4 1.6-4.2
2018-Apr-24 09:00N 49°24' W 054°48'0 0.0 210 / 101021.9 1.6-4.8
2018-Apr-24 08:00N 49°24' W 054°48'0 0.0 210 / 81021.8 1.5-4.9
2018-Apr-24 06:00N 49°24' W 054°48'0 0.0 190 / 91021.4 1.9-5.4
2018-Apr-24 05:00N 49°24' W 054°48'0 0.0 190 / 71021.5 2.1-6.0
2018-Apr-24 04:00N 49°24' W 054°48'0 0.0 200 / 81021.5 2.4-6.1
2018-Apr-24 03:00N 49°24' W 054°48'0 0.0 180 / 91021.4 2.8-6.4
2018-Apr-24 02:00N 49°24' W 054°48'0 0.0 230 / 71021.4 3.1-5.6
2018-Apr-24 01:00N 49°24' W 054°48'0 0.0 240 / 111021.4 4.7-7.0
2018-Apr-24 00:00N 49°24' W 054°48'0 0.0 250 / 101021.2 5.5-7.8
2018-Apr-23 23:00N 49°24' W 054°48'0 0.0 270 / 61020.6 6.7-9.3
2018-Apr-23 22:00N 49°24' W 054°48'0 0.0 310 / 41020.2 7.6-8.8
2018-Apr-23 21:00N 49°24' W 054°48'0 0.0 340 / 51019.7 7.7-9.3
2018-Apr-23 19:00N 49°24' W 054°48'0 0.0 300 / 81019.4 7.5-9.0
2018-Apr-23 18:00N 49°24' W 054°48'0 0.0 300 / 91019.5 6.2-9.7
2018-Apr-23 17:00N 49°24' W 054°48'0 0.0 360 / 81019.7 4.4-7.5
2018-Apr-23 16:00N 49°24' W 054°48'4 3.9 300 / 91019.7 5.2-8.5
2018-Apr-23 15:00N 49°24' W 054°54'1212.0 220 / 51020.0 3.1-6.5
2018-Apr-23 14:00N 49°36' W 054°54'1212.0 260 / 51020.2 0.7-6.0
2018-Apr-23 13:00N 49°48' W 054°54'7 7.1 250 / 161019.6 -1.2-4.8
2018-Apr-23 12:00N 49°54' W 054°48'1312.6 240 / 111019.4 -1.9-4.5
2018-Apr-23 11:00N 50°06' W 054°42'7 7.1 240 / 91019.2 -2.0-4.2
2018-Apr-23 10:00N 50°00' W 054°36'7 7.1 240 / 101019.0 -2.4-4.9
2018-Apr-23 09:00N 49°54' W 054°30'4 3.9 260 / 91018.5 -2.2-4.5
2018-Apr-23 08:00N 49°54' W 054°24'6 6.0 270 / 101018.3 -1.6-4.0
2018-Apr-23 07:00N 49°48' W 054°24'0 0.0 260 / 51018.4 -0.9-3.3
2018-Apr-23 06:00N 49°48' W 054°24'0 0.0 270 / 71018.0 -1.1-4.0
2018-Apr-23 05:00N 49°48' W 054°24'6 6.0 270 / 71017.8 -0.8-3.7
2018-Apr-23 04:00N 49°54' W 054°24'4 3.9 270 / 71017.9 -0.6-3.5
2018-Apr-23 03:00N 49°54' W 054°30'0 0.0 270 / 91017.8 -0.8-3.8
2018-Apr-23 02:00N 49°54' W 054°30'0 0.0 270 / 81017.6 -0.4-3.9
2018-Apr-23 01:00N 49°54' W 054°30'0 0.0 290 / 91017.1 -0.1-4.2
2018-Apr-23 00:00N 49°54' W 054°30'4 3.9 270 / 81016.9 -0.1-3.7
2018-Apr-22 23:00N 49°54' W 054°36'0 0.0 270 / 91016.2 0.1-3.9
2018-Apr-22 22:00N 49°54' W 054°36'1312.6 280 / 111015.7 -0.9-4.5
2018-Apr-22 21:00N 49°42' W 054°42'0 0.0 320 / 131015.2 -1.0-5.2
2018-Apr-22 20:00N 49°42' W 054°42'6 3.0 320 / 81015.4 -0.6-4.6
2018-Apr-22 18:00N 49°48' W 054°42'7 7.1 320 / 71014.1 -0.5-4.3
2018-Apr-22 17:00N 49°54' W 054°36'0 0.0 310 / 111013.9 -0.9-3.8
2018-Apr-22 16:00N 49°54' W 054°36'0 0.0 300 / 91013.5 1.0-3.1
2018-Apr-22 15:00N 49°54' W 054°36'7 7.1 300 / 101013.0 1.7-2.6
2018-Apr-22 14:00N 50°00' W 054°42'0 0.0 280 / 181012.4 -1.4-4.1
2018-Apr-22 13:00N 50°00' W 054°42'10 9.8 280 / 191012.0 -0.6-4.2
2018-Apr-22 12:00N 50°06' W 054°54'4 3.8 300 / 161011.8 0.8-2.8
2018-Apr-22 11:00N 50°06' W 054°48'10 9.8 280 / 181010.5 -1.6-3.6
2018-Apr-22 10:00N 50°00' W 054°36'7 7.1 280 / 261010.4 -1.7-3.2
2018-Apr-22 09:00N 50°06' W 054°30'0 0.0 280 / 221009.2 -1.9-3.2
2018-Apr-22 08:00N 50°06' W 054°30'0 0.0 270 / 191008.4 -2.1-3.6
2018-Apr-22 07:00N 50°06' W 054°30'0 0.0 270 / 161008.0 -1.9-3.4
2018-Apr-22 06:00N 50°06' W 054°30'0 0.0 270 / 171007.2 -1.8-3.1
2018-Apr-22 05:00N 50°06' W 054°30'7 7.1 280 / 181006.1 -1.7-3.0
2018-Apr-22 04:00N 50°12' W 054°36'0 0.0 290 / 211005.3 -1.4-2.5
2018-Apr-22 03:00N 50°12' W 054°36'0 0.0 290 / 241004.9 -0.9-1.9
2018-Apr-22 02:00N 50°12' W 054°36'0 0.0 280 / 231004.8 -0.4-1.4
2018-Apr-22 01:00N 50°12' W 054°36'4 3.8 280 / 181004.6 -0.3-1.1
2018-Apr-22 00:00N 50°12' W 054°42'0 0.0 300 / 211003.9 0.3-1.0
2018-Apr-21 23:00N 50°12' W 054°42'4 3.8 290 / 181003.2 0.6-0.6
2018-Apr-21 22:00N 50°12' W 054°48'6 6.0 300 / 191002.3 0.7-0.5
2018-Apr-21 21:00N 50°06' W 054°48'1312.6 280 / 191001.5 0.5-0.9
2018-Apr-21 20:00N 49°54' W 054°42'1414.3 260 / 211001.0 0.6-1.5
2018-Apr-21 19:00N 49°42' W 054°30'6 6.0 250 / 211001.2 1.1-0.5
2018-Apr-21 18:00N 49°36' W 054°30'0 0.0 260 / 181001.3 1.5-0.2
2018-Apr-21 17:00N 49°36' W 054°30'0 0.0 260 / 191001.0 2.1-0.8
2018-Apr-21 16:00N 49°36' W 054°30'4 3.9 270 / 211000.3 1.7-1.1
2018-Apr-21 15:00N 49°36' W 054°24'6 6.0 250 / 161000.1 0.9-1.4
2018-Apr-21 14:00N 49°30' W 054°24'8 7.8 260 / 23999.3 0.6-1.6
2018-Apr-21 13:00N 49°30' W 054°12'1211.7 250 / 19998.7 0.4-1.5
2018-Apr-21 12:00N 49°30' W 053°54'10 9.8 260 / 24997.2 -0.2-1.6
2018-Apr-21 11:00N 49°24' W 053°42'1211.7 240 / 20997.3 -0.1-1.4
2018-Apr-21 10:00N 49°24' W 053°24'1414.3 240 / 19997.1 -0.8-2.1
2018-Apr-21 09:00N 49°12' W 053°12'10 9.9 220 / 19997.4 -1.0-2.4
2018-Apr-21 08:00N 49°06' W 053°00'1312.6 230 / 21997.1 -0.5-2.1
2018-Apr-21 07:00N 48°54' W 052°54'1414.4 210 / 23997.1 0.4-1.0
2018-Apr-21 06:00N 48°42' W 052°42'1212.0 200 / 27997.7 -0.4-1.4
2018-Apr-21 05:00N 48°30' W 052°42'1212.0 200 / 30998.5 0.2-1.5
2018-Apr-21 04:00N 48°18' W 052°42'1212.0 200 / 23999.9 0.6-1.4
2018-Apr-21 03:00N 48°06' W 052°42'1818.4 200 / 281000.1 0.9-1.0
2018-Apr-21 02:00N 47°48' W 052°36'1212.0 200 / 211001.6 1.6-0.5
2018-Apr-21 01:00N 47°36' W 052°36'112.6 200 / 201002.3 2.2-0.4
2018-Apr-21 00:54N 47°37' W 052°37'4 7.4
2018-Apr-21 00:19N 47°34' W 052°42'2 6.2
2018-Apr-21 00:00N 47°36' W 052°42'2154.0 210 / 141002.3 2.6 0.6
2018-Apr-20 23:59N 47°34' W 052°42'0 0.0
2018-Apr-20 23:25N 47°34' W 052°42'2 5.4
2018-Apr-20 23:00N 47°36' W 052°42'233.4 210 / 151002.5 3.1 1.1
2018-Apr-20 22:55N 47°34' W 052°42'0 0.0
2018-Apr-20 22:16N 47°34' W 052°42'2 8.2
2018-Apr-20 22:00N 47°36' W 052°42'2120.5 220 / 171002.3 4.6 2.1
2018-Apr-20 21:58N 47°34' W 052°42'0 0.0
2018-Apr-20 21:28N 47°34' W 052°42'2 4.8
2018-Apr-20 21:00N 47°36' W 052°42'213.7 1002.3 1.6 0.7
2018-Apr-20 20:49N 47°34' W 052°42'0 0.0
2018-Apr-20 20:25N 47°34' W 052°42'2 5.4
2018-Apr-20 20:00N 47°36' W 052°42'233.4 030 / 11002.9 2.0 0.8
2018-Apr-20 19:55N 47°34' W 052°42'0 0.0
2018-Apr-20 19:25N 47°34' W 052°42'2 5.4
2018-Apr-20 19:00N 47°36' W 052°42'233.3 360 / 11003.7 1.8 0.4
2018-Apr-20 18:55N 47°34' W 052°42'0 0.0
2018-Apr-20 18:25N 47°34' W 052°42'2 5.4
2018-Apr-20 18:00N 47°36' W 052°42'233.4 350 / 11004.0 1.6-0.1
2018-Apr-20 17:55N 47°34' W 052°42'0 0.0
2018-Apr-20 17:25N 47°34' W 052°42'2 5.4
2018-Apr-20 17:00N 47°36' W 052°42'233.3 040 / 91004.9 3.6 0.7
2018-Apr-20 16:55N 47°34' W 052°42'0 0.0
2018-Apr-20 16:25N 47°34' W 052°42'2 5.4
2018-Apr-20 16:00N 47°36' W 052°42'233.3 040 / 61005.2 16.9 4.8
2018-Apr-20 15:55N 47°34' W 052°42'0 0.6
2018-Apr-20 15:28N 47°34' W 052°42'0 0.1
2018-Apr-20 15:00N 47°34' W 052°42'2216.1
2018-Apr-20 15:00N 47°36' W 052°42'2 4.2 070 / 101007.1 -0.3-0.9
2018-Apr-20 14:27N 47°34' W 052°42'0 0.0
2018-Apr-20 14:00N 47°34' W 052°42'2210.5
2018-Apr-20 14:00N 47°36' W 052°42'2 4.7 070 / 111007.3 -0.3-0.9
2018-Apr-20 13:30N 47°34' W 052°42'0 0.0
2018-Apr-20 13:00N 47°34' W 052°42'2216.1
2018-Apr-20 13:00N 47°36' W 052°42'2 4.7 060 / 81008.5 -0.2-0.9
2018-Apr-20 12:30N 47°34' W 052°42'2 4.5
2018-Apr-20 12:00N 47°36' W 052°42'225.6 050 / 141008.2 0.4-0.5
2018-Apr-20 11:54N 47°34' W 052°42'0 0.0
2018-Apr-20 11:12N 47°34' W 052°42'210.8
2018-Apr-20 11:00N 47°36' W 052°42'258.6 060 / 101008.9 1.1-0.3
2018-Apr-20 10:57N 47°34' W 052°42'0 0.0
2018-Apr-20 10:27N 47°34' W 052°42'0 0.0
2018-Apr-20 10:00N 47°34' W 052°42'2210.5
2018-Apr-20 10:00N 47°36' W 052°42'2 3.6 070 / 51009.6 0.7-0.5
2018-Apr-20 09:21N 47°34' W 052°42'2 6.3
2018-Apr-20 09:00N 47°36' W 052°42'216.4 040 / 31009.6 1.3-0.2
2018-Apr-20 08:51N 47°34' W 052°42'0 0.0
2018-Apr-20 08:30N 47°34' W 052°42'2 4.5
2018-Apr-20 08:00N 47°36' W 052°42'225.5 230 / 31010.2 1.4-0.5
2018-Apr-20 07:54N 47°34' W 052°42'0 0.0
2018-Apr-20 07:30N 47°34' W 052°42'0 0.0
2018-Apr-20 07:00N 47°34' W 052°42'2210.5
2018-Apr-20 07:00N 47°36' W 052°42'2 4.7 220 / 61010.3 1.6-0.8
2018-Apr-20 06:30N 47°34' W 052°42'2 4.5
2018-Apr-20 06:00N 47°36' W 052°42'225.6 220 / 61010.8 2.0-0.7
2018-Apr-20 05:54N 47°34' W 052°42'0 0.0
2018-Apr-20 05:30N 47°34' W 052°42'2 4.5
2018-Apr-20 05:00N 47°36' W 052°42'225.5 220 / 41010.5 2.3-0.7
2018-Apr-20 04:54N 47°34' W 052°42'0 0.0
2018-Apr-20 04:18N 47°34' W 052°42'2 7.3
2018-Apr-20 04:00N 47°36' W 052°42'257.8 210 / 51010.2 3.6-0.2
2018-Apr-20 03:57N 47°34' W 052°42'0 0.0
2018-Apr-20 03:30N 47°34' W 052°42'2 4.5
2018-Apr-20 03:00N 47°36' W 052°42'225.4 210 / 51010.4 3.8-0.2
2018-Apr-20 02:54N 47°34' W 052°42'0 0.0
2018-Apr-20 02:30N 47°34' W 052°42'2 4.5
2018-Apr-20 02:00N 47°36' W 052°42'225.6 230 / 41010.4 3.1-0.5
2018-Apr-20 01:54N 47°34' W 052°42'0 0.0
2018-Apr-20 01:24N 47°34' W 052°42'0 0.0
2018-Apr-20 01:00N 47°34' W 052°42'2210.5
2018-Apr-20 01:00N 47°36' W 052°42'2 3.1 220 / 91009.5 3.8-0.1
2018-Apr-20 00:15N 47°34' W 052°42'0 0.0
2018-Apr-20 00:00N 47°34' W 052°42'2216.1
2018-Apr-20 00:00N 47°36' W 052°42'2 4.7 220 / 111009.5 4.4 0.1
2018-Apr-19 23:30N 47°34' W 052°42'0 0.0
2018-Apr-19 23:00N 47°34' W 052°42'2216.0
2018-Apr-19 23:00N 47°36' W 052°42'2 3.3 220 / 111007.8 5.1 0.4
2018-Apr-19 22:18N 47°34' W 052°42'2 7.3
2018-Apr-19 22:00N 47°36' W 052°42'225.5 220 / 101007.1 6.6 0.9
2018-Apr-19 21:54N 47°34' W 052°42'0 0.0
2018-Apr-19 21:27N 47°34' W 052°42'0 0.0
2018-Apr-19 21:00N 47°34' W 052°42'2216.1
2018-Apr-19 21:00N 47°36' W 052°42'2 4.7 220 / 131006.1 7.1 0.5
2018-Apr-19 20:30N 47°34' W 052°42'0 0.0
2018-Apr-19 20:00N 47°34' W 052°42'2210.5
2018-Apr-19 20:00N 47°36' W 052°42'2 3.6 220 / 101005.6 8.0 0.1
2018-Apr-19 19:21N 47°34' W 052°42'2 6.3
2018-Apr-19 19:00N 47°36' W 052°42'257.8 230 / 121005.5 8.3 0.2
2018-Apr-19 18:57N 47°34' W 052°42'0 0.0
2018-Apr-19 18:26N 47°34' W 052°42'0 0.0
2018-Apr-19 18:00N 47°34' W 052°42'2200.2
2018-Apr-19 18:00N 47°36' W 052°42'2 4.6 220 / 171004.8 8.2 0.2
2018-Apr-19 17:30N 47°34' W 052°42'2 4.5
2018-Apr-19 17:00N 47°36' W 052°42'2139.1 230 / 131004.8 8.2 0.1
2018-Apr-19 16:59N 47°34' W 052°42'0 0.0
2018-Apr-19 16:27N 47°34' W 052°42'2 4.9
2018-Apr-19 16:00N 47°36' W 052°42'245.9 220 / 141004.5 7.5 0.8
2018-Apr-19 15:57N 47°34' W 052°42'0 0.0
2018-Apr-19 15:30N 47°34' W 052°42'2 4.5
2018-Apr-19 15:00N 47°36' W 052°42'263.2 220 / 141004.2 6.4 1.2
2018-Apr-19 14:57N 47°34' W 052°42'0 0.0
2018-Apr-19 14:26N 47°34' W 052°42'2 5.2
2018-Apr-19 14:00N 47°36' W 052°42'2139.2 220 / 161004.6 4.6 1.3
2018-Apr-19 13:59N 47°34' W 052°42'0 0.0
2018-Apr-19 13:28N 47°34' W 052°42'0 0.0
2018-Apr-19 12:57N 47°34' W 052°42'0 0.0
2018-Apr-19 12:26N 47°34' W 052°42'0 0.0
2018-Apr-19 12:00N 47°34' W 052°42'2264.9
2018-Apr-19 12:00N 47°36' W 052°42'2 4.6 220 / 121003.9 3.7 0.7
2018-Apr-19 11:30N 47°34' W 052°42'2 4.5
2018-Apr-19 11:00N 47°36' W 052°42'2139.2 220 / 111003.6 3.4 0.5
2018-Apr-19 10:59N 47°34' W 052°42'0 0.0
2018-Apr-19 10:28N 47°34' W 052°42'2 4.9
2018-Apr-19 10:00N 47°36' W 052°42'259.1 220 / 101003.3 3.5 0.1
2018-Apr-19 09:57N 47°34' W 052°42'0 0.0
2018-Apr-19 09:26N 47°34' W 052°42'2 5.1
2018-Apr-19 09:00N 47°36' W 052°42'253.9 210 / 101002.7 2.6 0.1
2018-Apr-19 08:57N 47°34' W 052°42'4 7.0
2018-Apr-19 08:27N 47°35' W 052°37'2 3.5
2018-Apr-19 08:00N 47°36' W 052°36'6 6.0 230 / 171001.9 2.7-0.1
2018-Apr-19 07:00N 47°42' W 052°36'1212.0 230 / 241001.3 2.5-0.0
2018-Apr-19 06:00N 47°54' W 052°36'4 4.0 230 / 241001.1 2.8 1.6
2018-Apr-19 05:00N 47°54' W 052°42'1818.0 230 / 22999.9 1.6 0.5
2018-Apr-19 04:00N 48°12' W 052°42'6 6.0 220 / 30999.1 2.3 1.6
2018-Apr-19 03:00N 48°18' W 052°42'1212.0 240 / 26997.7 1.6 1.1
2018-Apr-19 02:00N 48°30' W 052°42'1212.0 230 / 24996.7 1.0 0.5
2018-Apr-19 01:00N 48°42' W 052°42'10 9.9 230 / 18996.6 0.5 0.1
2018-Apr-19 00:00N 48°48' W 052°54'6 6.0 170 / 11997.0 -0.1-0.5
2018-Apr-18 23:00N 48°54' W 052°54'1414.4 150 / 9996.8 -0.2-0.7
2018-Apr-18 22:00N 49°06' W 053°06'1312.6 130 / 8997.4 -0.4-0.9
2018-Apr-18 21:00N 49°18' W 053°12'7 7.2 120 / 16997.8 -0.7-1.2
2018-Apr-18 20:00N 49°24' W 053°18'1211.7 120 / 25999.2 -0.8-1.4
2018-Apr-18 19:00N 49°24' W 053°36'10 9.8 130 / 241000.0 -0.8-1.3
2018-Apr-18 18:00N 49°30' W 053°48'4 3.9 120 / 281000.9 -1.0-1.5
2018-Apr-18 17:00N 49°30' W 053°54'1211.7 110 / 291002.4 -0.7-1.3
2018-Apr-18 16:00N 49°30' W 054°12'10 4.9 110 / 181003.5 -0.3-0.9
2018-Apr-18 14:00N 49°36' W 054°24'4 3.9 110 / 71006.4 -1.1-1.9
2018-Apr-18 13:00N 49°36' W 054°30'0 0.0 130 / 101007.8 -0.5-1.4
2018-Apr-18 12:00N 49°36' W 054°30'0 0.0 120 / 201009.1 -0.4-1.8
2018-Apr-18 11:00N 49°36' W 054°30'0 0.0 090 / 111010.9 -1.4-3.1
2018-Apr-18 10:00N 49°36' W 054°30'7 7.1 110 / 161012.4 -1.7-3.5
2018-Apr-18 09:00N 49°42' W 054°36'0 0.0 110 / 221012.9 -1.5-4.1
2018-Apr-18 08:00N 49°42' W 054°36'4 3.9 100 / 181014.4 -1.9-4.1
2018-Apr-18 07:00N 49°42' W 054°42'10 9.8 110 / 171015.6 -2.1-4.3
2018-Apr-18 06:00N 49°48' W 054°54'7 7.1 110 / 211016.4 -2.1-4.6
2018-Apr-18 05:00N 49°54' W 055°00'1211.6 110 / 181016.8 -2.2-4.8
2018-Apr-18 04:00N 49°54' W 055°18'1313.0 100 / 161018.2 -2.5-4.7
2018-Apr-18 03:00N 50°00' W 055°36'6 6.0 110 / 71019.7 -2.3-5.5
2018-Apr-18 02:00N 49°54' W 055°36'6 6.0 130 / 91020.4 -2.7-5.9
2018-Apr-18 01:00N 50°00' W 055°36'1212.0 080 / 151021.0 -2.8-6.2
2018-Apr-18 00:00N 50°12' W 055°36'6 6.0 080 / 111022.0 -2.9-6.5
2018-Apr-17 23:00N 50°18' W 055°36'7 7.1 090 / 101022.0 -3.0-6.9
2018-Apr-17 22:00N 50°24' W 055°30'6 6.0 070 / 91022.3 -3.1-7.3
2018-Apr-17 21:00N 50°30' W 055°30'4 3.8 100 / 61023.0 -2.7-7.2
2018-Apr-17 20:00N 50°30' W 055°24'6 6.0 110 / 31023.5 -2.8-7.6
2018-Apr-17 19:00N 50°24' W 055°24'1818.0 080 / 51023.5 -3.1-7.1
2018-Apr-17 18:00N 50°06' W 055°24'1312.6 080 / 71023.3 -2.8-6.7
2018-Apr-17 17:00N 49°54' W 055°30'1414.3 070 / 131023.2 -2.2-5.9
2018-Apr-17 16:00N 49°42' W 055°42'1615.5 080 / 121023.2 -1.6-7.2
2018-Apr-17 15:00N 49°42' W 056°06'7 2.4 040 / 91023.3 1.1-6.6
2018-Apr-17 12:00N 49°36' W 056°12'0 0.0 150 / 31024.6 0.1-9.3
2018-Apr-17 11:00N 49°36' W 056°12'0 0.0 240 / 41024.9 -0.8-9.8
2018-Apr-17 10:00N 49°36' W 056°12'0 0.0 240 / 61025.0 -3.7-11.0
2018-Apr-17 09:00N 49°36' W 056°12'0 0.0 190 / 31025.1 -3.5-11.7
2018-Apr-17 08:00N 49°36' W 056°12'0 0.0 250 / 61025.0 -3.1-11.6
2018-Apr-17 07:00N 49°36' W 056°12'0 0.0 290 / 141024.8 -2.6-12.6
2018-Apr-17 06:00N 49°36' W 056°12'0 0.0 230 / 61025.2 -2.8-12.7
2018-Apr-17 05:00N 49°36' W 056°12'0 0.0 250 / 41025.3 -2.6-12.6
2018-Apr-17 04:00N 49°36' W 056°12'0 0.0 190 / 81025.2 0.9-10.6
2018-Apr-17 03:00N 49°36' W 056°12'0 0.0 280 / 191024.5 -1.4-13.4
2018-Apr-17 02:00N 49°36' W 056°12'0 0.0 280 / 221024.5 -1.1-13.5
2018-Apr-17 01:00N 49°36' W 056°12'0 0.0 260 / 161025.5 -1.6-12.6
2018-Apr-17 00:00N 49°36' W 056°12'0 0.0 190 / 71026.7 -1.4-12.3
2018-Apr-16 23:00N 49°36' W 056°12'0 0.0 220 / 41026.9 -0.4-12.0
2018-Apr-16 22:00N 49°36' W 056°12'0 0.0 280 / 121026.9 0.8-11.4
2018-Apr-16 21:00N 49°36' W 056°12'4 3.9 300 / 101026.9 1.0-12.9
2018-Apr-16 20:00N 49°36' W 056°06'0 0.0 280 / 91027.0 0.8-11.8
2018-Apr-16 19:00N 49°36' W 056°06'7 7.1 290 / 131027.1 0.7-11.8
2018-Apr-16 18:00N 49°42' W 056°00'10 9.8 280 / 221027.4 -0.6-10.9
2018-Apr-16 17:00N 49°36' W 055°48'10 9.8 310 / 121027.8 -0.2-11.4
2018-Apr-16 16:00N 49°30' W 056°00'7 7.2 290 / 161028.1 0.1-11.2
2018-Apr-16 15:00N 49°24' W 056°06'0 0.0 310 / 51029.2 5.0-8.1
2018-Apr-16 14:00N 49°24' W 056°06'0 0.0 320 / 111029.9 0.7-11.0
2018-Apr-16 13:00N 49°24' W 056°06'0 0.0 320 / 101030.4 -0.0-11.1
2018-Apr-16 12:00N 49°24' W 056°06'6 6.0 310 / 71030.5 4.8-7.8
2018-Apr-16 11:00N 49°30' W 056°06'6 6.0 170 / 41030.2 -3.7-9.1
2018-Apr-16 10:00N 49°24' W 056°06'0 0.0 190 / 81030.6 -4.2-8.9
2018-Apr-16 09:00N 49°24' W 056°06'0 0.0 150 / 31030.5 -4.9-8.3
2018-Apr-16 08:00N 49°24' W 056°06'0 0.0 170 / 11030.4 -5.0-8.7
2018-Apr-16 07:00N 49°24' W 056°06'   170 / 11030.6 -4.2-8.3
Track history (hours):
 
Tides and Currents Weather Stations Pressure Air Temp Water Temp Dewpoint Dewpoint Depression Visibility Wind Speed Wind Dir Waves Ship Positions

Oceanographic research ship CCGS Terry Fox (Canada)

Detailed information on ship capabilities available from ARCUS's ALIAS (Arctic Logistics Information and Support) project.

Last reported at 2018-Apr-26 07:00 UTC. Time now 2018-Apr-26 07:55 UTC.
Position N 50°24' W 055°48'.

Length 88 m; beam 17.82 m; draft 2 m.

MMSI: 316122000.

Wind from 170 at 4 knots

Barometer 1020.8 mb
Air temperature 3.2 ° C
Dewpoint -0.9 ° C

Date/timePositionNaut miles runAvg speedWind from/ knotsBaromVisibWave heightAir tempDewpointWater temp
2018-Apr-26 07:00N 50°24' W 055°48'10 4.9 170 / 41020.8 3.2-0.9
2018-Apr-26 05:00N 50°18' W 055°36'7 7.1 210 / 111019.6 5.0-0.7
2018-Apr-26 04:00N 50°12' W 055°30'7 7.1 190 / 71019.7 4.7-0.7
2018-Apr-26 03:00N 50°06' W 055°24'7 7.1 230 / 141019.6 8.6-0.4
2018-Apr-26 02:00N 50°00' W 055°18'7 7.1 210 / 121019.7 4.3-0.7
2018-Apr-26 01:00N 49°54' W 055°12'6 6.0 220 / 161019.9 6.0-0.4
2018-Apr-26 00:00N 49°48' W 055°12'4 3.9 230 / 171019.4 7.5-0.3
2018-Apr-25 23:00N 49°48' W 055°06'10 9.8 220 / 171018.9 8.1-0.4
2018-Apr-25 22:00N 49°42' W 054°54'1212.0 210 / 91018.6 14.3-3.0
2018-Apr-25 21:00N 49°30' W 054°54'7 7.2 220 / 51018.0 15.0-2.5
2018-Apr-25 20:00N 49°24' W 054°48'0 0.0 240 / 111018.0 17.6-3.2
2018-Apr-25 19:00N 49°24' W 054°48'0 0.0 260 / 61017.9 16.6-2.8
2018-Apr-25 18:00N 49°24' W 054°48'0 0.0 250 / 81017.6 17.9-4.2
2018-Apr-25 17:00N 49°24' W 054°48'0 0.0 250 / 71017.7 17.0-2.9
2018-Apr-25 16:00N 49°24' W 054°48'0 0.0 240 / 101017.8 15.4-2.8
2018-Apr-25 15:00N 49°24' W 054°48'0 0.0 050 / 21018.2 11.4-2.5
2018-Apr-25 14:00N 49°24' W 054°48'0 0.0 240 / 31018.6 11.1-2.9
2018-Apr-25 13:00N 49°24' W 054°48'0 0.0 200 / 51018.9 8.6-2.4
2018-Apr-25 12:00N 49°24' W 054°48'0 0.0 210 / 61018.9 7.4-2.1
2018-Apr-25 11:00N 49°24' W 054°48'0 0.0 180 / 61018.7 6.0-2.4
2018-Apr-25 10:00N 49°24' W 054°48'0 0.0 190 / 81018.3 5.4-2.8
2018-Apr-25 09:00N 49°24' W 054°48'0 0.0 190 / 91017.8 5.0-3.1
2018-Apr-25 08:00N 49°24' W 054°48'0 0.0 180 / 91017.7 5.0-3.3
2018-Apr-25 07:00N 49°24' W 054°48'0 0.0 170 / 61017.8 4.4-2.9
2018-Apr-25 06:00N 49°24' W 054°48'0 0.0 190 / 81017.7 4.7-2.9
2018-Apr-25 05:00N 49°24' W 054°48'0 0.0 170 / 81017.4 4.5-3.1
2018-Apr-25 04:00N 49°24' W 054°48'0 0.0 210 / 131017.6 5.5-3.5
2018-Apr-25 03:00N 49°24' W 054°48'0 0.0 220 / 151017.6 6.2-3.6
2018-Apr-25 02:00N 49°24' W 054°48'0 0.0 220 / 181017.3 6.8-3.9
2018-Apr-25 01:00N 49°24' W 054°48'0 0.0 220 / 171017.5 7.5-4.7
2018-Apr-25 00:00N 49°24' W 054°48'0 0.0 210 / 141017.6 9.0-6.2
2018-Apr-24 23:00N 49°24' W 054°48'0 0.0 210 / 141017.3 10.5-6.7
2018-Apr-24 22:00N 49°24' W 054°48'0 0.0 210 / 171016.8 11.8-6.3
2018-Apr-24 21:00N 49°24' W 054°48'0 0.0 220 / 181017.2 12.3-6.0
2018-Apr-24 20:00N 49°24' W 054°48'0 0.0 220 / 161017.6 12.3-5.7
2018-Apr-24 19:00N 49°24' W 054°48'0 0.0 220 / 191017.8 12.1-5.6
2018-Apr-24 18:00N 49°24' W 054°48'0 0.0 220 / 191018.3 12.0-5.7
2018-Apr-24 17:00N 49°24' W 054°48'0 0.0 240 / 161019.1 12.4-5.9
2018-Apr-24 16:00N 49°24' W 054°48'0 0.0 240 / 201019.8 11.7-6.4
2018-Apr-24 15:00N 49°24' W 054°48'0 0.0 240 / 191020.4 10.4-5.8
2018-Apr-24 14:00N 49°24' W 054°48'0 0.0 240 / 161020.9 8.6-5.8
2018-Apr-24 13:00N 49°24' W 054°48'0 0.0 240 / 181021.2 7.2-5.2
2018-Apr-24 12:00N 49°24' W 054°48'0 0.0 250 / 191021.5 5.3-4.5
2018-Apr-24 11:00N 49°24' W 054°48'0 0.0 200 / 51022.2 2.8-4.1
2018-Apr-24 10:00N 49°24' W 054°48'0 0.0 180 / 61022.4 1.6-4.2
2018-Apr-24 09:00N 49°24' W 054°48'0 0.0 210 / 101021.9 1.6-4.8
2018-Apr-24 08:00N 49°24' W 054°48'0 0.0 210 / 81021.8 1.5-4.9
2018-Apr-24 06:00N 49°24' W 054°48'0 0.0 190 / 91021.4 1.9-5.4
2018-Apr-24 05:00N 49°24' W 054°48'0 0.0 190 / 71021.5 2.1-6.0
2018-Apr-24 04:00N 49°24' W 054°48'0 0.0 200 / 81021.5 2.4-6.1
2018-Apr-24 03:00N 49°24' W 054°48'0 0.0 180 / 91021.4 2.8-6.4
2018-Apr-24 02:00N 49°24' W 054°48'0 0.0 230 / 71021.4 3.1-5.6
2018-Apr-24 01:00N 49°24' W 054°48'0 0.0 240 / 111021.4 4.7-7.0
2018-Apr-24 00:00N 49°24' W 054°48'0 0.0 250 / 101021.2 5.5-7.8
2018-Apr-23 23:00N 49°24' W 054°48'0 0.0 270 / 61020.6 6.7-9.3
2018-Apr-23 22:00N 49°24' W 054°48'0 0.0 310 / 41020.2 7.6-8.8
2018-Apr-23 21:00N 49°24' W 054°48'0 0.0 340 / 51019.7 7.7-9.3
2018-Apr-23 19:00N 49°24' W 054°48'0 0.0 300 / 81019.4 7.5-9.0
2018-Apr-23 18:00N 49°24' W 054°48'0 0.0 300 / 91019.5 6.2-9.7
2018-Apr-23 17:00N 49°24' W 054°48'0 0.0 360 / 81019.7 4.4-7.5
2018-Apr-23 16:00N 49°24' W 054°48'4 3.9 300 / 91019.7 5.2-8.5
2018-Apr-23 15:00N 49°24' W 054°54'1212.0 220 / 51020.0 3.1-6.5
2018-Apr-23 14:00N 49°36' W 054°54'1212.0 260 / 51020.2 0.7-6.0
2018-Apr-23 13:00N 49°48' W 054°54'7 7.1 250 / 161019.6 -1.2-4.8
2018-Apr-23 12:00N 49°54' W 054°48'1312.6 240 / 111019.4 -1.9-4.5
2018-Apr-23 11:00N 50°06' W 054°42'7 7.1 240 / 91019.2 -2.0-4.2
2018-Apr-23 10:00N 50°00' W 054°36'7 7.1 240 / 101019.0 -2.4-4.9
2018-Apr-23 09:00N 49°54' W 054°30'4 3.9 260 / 91018.5 -2.2-4.5
2018-Apr-23 08:00N 49°54' W 054°24'6 6.0 270 / 101018.3 -1.6-4.0
2018-Apr-23 07:00N 49°48' W 054°24'0 0.0 260 / 51018.4 -0.9-3.3
2018-Apr-23 06:00N 49°48' W 054°24'0 0.0 270 / 71018.0 -1.1-4.0
2018-Apr-23 05:00N 49°48' W 054°24'6 6.0 270 / 71017.8 -0.8-3.7
2018-Apr-23 04:00N 49°54' W 054°24'4 3.9 270 / 71017.9 -0.6-3.5
2018-Apr-23 03:00N 49°54' W 054°30'0 0.0 270 / 91017.8 -0.8-3.8
2018-Apr-23 02:00N 49°54' W 054°30'0 0.0 270 / 81017.6 -0.4-3.9
2018-Apr-23 01:00N 49°54' W 054°30'0 0.0 290 / 91017.1 -0.1-4.2
2018-Apr-23 00:00N 49°54' W 054°30'4 3.9 270 / 81016.9 -0.1-3.7
2018-Apr-22 23:00N 49°54' W 054°36'0 0.0 270 / 91016.2 0.1-3.9
2018-Apr-22 22:00N 49°54' W 054°36'1312.6 280 / 111015.7 -0.9-4.5
2018-Apr-22 21:00N 49°42' W 054°42'0 0.0 320 / 131015.2 -1.0-5.2
2018-Apr-22 20:00N 49°42' W 054°42'6 3.0 320 / 81015.4 -0.6-4.6
2018-Apr-22 18:00N 49°48' W 054°42'7 7.1 320 / 71014.1 -0.5-4.3
2018-Apr-22 17:00N 49°54' W 054°36'0 0.0 310 / 111013.9 -0.9-3.8
2018-Apr-22 16:00N 49°54' W 054°36'0 0.0 300 / 91013.5 1.0-3.1
2018-Apr-22 15:00N 49°54' W 054°36'7 7.1 300 / 101013.0 1.7-2.6
2018-Apr-22 14:00N 50°00' W 054°42'0 0.0 280 / 181012.4 -1.4-4.1
2018-Apr-22 13:00N 50°00' W 054°42'10 9.8 280 / 191012.0 -0.6-4.2
2018-Apr-22 12:00N 50°06' W 054°54'4 3.8 300 / 161011.8 0.8-2.8
2018-Apr-22 11:00N 50°06' W 054°48'10 9.8 280 / 181010.5 -1.6-3.6
2018-Apr-22 10:00N 50°00' W 054°36'7 7.1 280 / 261010.4 -1.7-3.2
2018-Apr-22 09:00N 50°06' W 054°30'0 0.0 280 / 221009.2 -1.9-3.2
2018-Apr-22 08:00N 50°06' W 054°30'0 0.0 270 / 191008.4 -2.1-3.6
2018-Apr-22 07:00N 50°06' W 054°30'0 0.0 270 / 161008.0 -1.9-3.4
2018-Apr-22 06:00N 50°06' W 054°30'0 0.0 270 / 171007.2 -1.8-3.1
2018-Apr-22 05:00N 50°06' W 054°30'7 7.1 280 / 181006.1 -1.7-3.0
2018-Apr-22 04:00N 50°12' W 054°36'0 0.0 290 / 211005.3 -1.4-2.5
2018-Apr-22 03:00N 50°12' W 054°36'0 0.0 290 / 241004.9 -0.9-1.9
2018-Apr-22 02:00N 50°12' W 054°36'0 0.0 280 / 231004.8 -0.4-1.4
2018-Apr-22 01:00N 50°12' W 054°36'4 3.8 280 / 181004.6 -0.3-1.1
2018-Apr-22 00:00N 50°12' W 054°42'0 0.0 300 / 211003.9 0.3-1.0
2018-Apr-21 23:00N 50°12' W 054°42'4 3.8 290 / 181003.2 0.6-0.6
2018-Apr-21 22:00N 50°12' W 054°48'6 6.0 300 / 191002.3 0.7-0.5
2018-Apr-21 21:00N 50°06' W 054°48'1312.6 280 / 191001.5 0.5-0.9
2018-Apr-21 20:00N 49°54' W 054°42'1414.3 260 / 211001.0 0.6-1.5
2018-Apr-21 19:00N 49°42' W 054°30'6 6.0 250 / 211001.2 1.1-0.5
2018-Apr-21 18:00N 49°36' W 054°30'0 0.0 260 / 181001.3 1.5-0.2
2018-Apr-21 17:00N 49°36' W 054°30'0 0.0 260 / 191001.0 2.1-0.8
2018-Apr-21 16:00N 49°36' W 054°30'4 3.9 270 / 211000.3 1.7-1.1
2018-Apr-21 15:00N 49°36' W 054°24'6 6.0 250 / 161000.1 0.9-1.4
2018-Apr-21 14:00N 49°30' W 054°24'8 7.8 260 / 23999.3 0.6-1.6
2018-Apr-21 13:00N 49°30' W 054°12'1211.7 250 / 19998.7 0.4-1.5
2018-Apr-21 12:00N 49°30' W 053°54'10 9.8 260 / 24997.2 -0.2-1.6
2018-Apr-21 11:00N 49°24' W 053°42'1211.7 240 / 20997.3 -0.1-1.4
2018-Apr-21 10:00N 49°24' W 053°24'1414.3 240 / 19997.1 -0.8-2.1
2018-Apr-21 09:00N 49°12' W 053°12'10 9.9 220 / 19997.4 -1.0-2.4
2018-Apr-21 08:00N 49°06' W 053°00'1312.6 230 / 21997.1 -0.5-2.1
2018-Apr-21 07:00N 48°54' W 052°54'1414.4 210 / 23997.1 0.4-1.0
2018-Apr-21 06:00N 48°42' W 052°42'1212.0 200 / 27997.7 -0.4-1.4
2018-Apr-21 05:00N 48°30' W 052°42'1212.0 200 / 30998.5 0.2-1.5
2018-Apr-21 04:00N 48°18' W 052°42'1212.0 200 / 23999.9 0.6-1.4
2018-Apr-21 03:00N 48°06' W 052°42'1818.4 200 / 281000.1 0.9-1.0
2018-Apr-21 02:00N 47°48' W 052°36'1212.0 200 / 211001.6 1.6-0.5
2018-Apr-21 01:00N 47°36' W 052°36'112.6 200 / 201002.3 2.2-0.4
2018-Apr-21 00:54N 47°37' W 052°37'4 7.4
2018-Apr-21 00:19N 47°34' W 052°42'2 6.2
2018-Apr-21 00:00N 47°36' W 052°42'2154.0 210 / 141002.3 2.6 0.6
2018-Apr-20 23:59N 47°34' W 052°42'0 0.0
2018-Apr-20 23:25N 47°34' W 052°42'2 5.4
2018-Apr-20 23:00N 47°36' W 052°42'233.4 210 / 151002.5 3.1 1.1
2018-Apr-20 22:55N 47°34' W 052°42'0 0.0
2018-Apr-20 22:16N 47°34' W 052°42'2 8.2
2018-Apr-20 22:00N 47°36' W 052°42'2120.5 220 / 171002.3 4.6 2.1
2018-Apr-20 21:58N 47°34' W 052°42'0 0.0
2018-Apr-20 21:28N 47°34' W 052°42'2 4.8
2018-Apr-20 21:00N 47°36' W 052°42'213.7 1002.3 1.6 0.7
2018-Apr-20 20:49N 47°34' W 052°42'0 0.0
2018-Apr-20 20:25N 47°34' W 052°42'2 5.4
2018-Apr-20 20:00N 47°36' W 052°42'233.4 030 / 11002.9 2.0 0.8
2018-Apr-20 19:55N 47°34' W 052°42'0 0.0
2018-Apr-20 19:25N 47°34' W 052°42'2 5.4
2018-Apr-20 19:00N 47°36' W 052°42'233.3 360 / 11003.7 1.8 0.4
2018-Apr-20 18:55N 47°34' W 052°42'0 0.0
2018-Apr-20 18:25N 47°34' W 052°42'2 5.4
2018-Apr-20 18:00N 47°36' W 052°42'233.4 350 / 11004.0 1.6-0.1
2018-Apr-20 17:55N 47°34' W 052°42'0 0.0
2018-Apr-20 17:25N 47°34' W 052°42'2 5.4
2018-Apr-20 17:00N 47°36' W 052°42'233.3 040 / 91004.9 3.6 0.7
2018-Apr-20 16:55N 47°34' W 052°42'0 0.0
2018-Apr-20 16:25N 47°34' W 052°42'2 5.4
2018-Apr-20 16:00N 47°36' W 052°42'233.3 040 / 61005.2 16.9 4.8
2018-Apr-20 15:55N 47°34' W 052°42'0 0.6
2018-Apr-20 15:28N 47°34' W 052°42'0 0.1
2018-Apr-20 15:00N 47°34' W 052°42'2216.1
2018-Apr-20 15:00N 47°36' W 052°42'2 4.2 070 / 101007.1 -0.3-0.9
2018-Apr-20 14:27N 47°34' W 052°42'0 0.0
2018-Apr-20 14:00N 47°34' W 052°42'2210.5
2018-Apr-20 14:00N 47°36' W 052°42'2 4.7 070 / 111007.3 -0.3-0.9
2018-Apr-20 13:30N 47°34' W 052°42'0 0.0
2018-Apr-20 13:00N 47°34' W 052°42'2216.1
2018-Apr-20 13:00N 47°36' W 052°42'2 4.7 060 / 81008.5 -0.2-0.9
2018-Apr-20 12:30N 47°34' W 052°42'2 4.5
2018-Apr-20 12:00N 47°36' W 052°42'225.6 050 / 141008.2 0.4-0.5
2018-Apr-20 11:54N 47°34' W 052°42'0 0.0
2018-Apr-20 11:12N 47°34' W 052°42'210.8
2018-Apr-20 11:00N 47°36' W 052°42'258.6 060 / 101008.9 1.1-0.3
2018-Apr-20 10:57N 47°34' W 052°42'0 0.0
2018-Apr-20 10:27N 47°34' W 052°42'0 0.0
2018-Apr-20 10:00N 47°34' W 052°42'2210.5
2018-Apr-20 10:00N 47°36' W 052°42'2 3.6 070 / 51009.6 0.7-0.5
2018-Apr-20 09:21N 47°34' W 052°42'2 6.3
2018-Apr-20 09:00N 47°36' W 052°42'216.4 040 / 31009.6 1.3-0.2
2018-Apr-20 08:51N 47°34' W 052°42'0 0.0
2018-Apr-20 08:30N 47°34' W 052°42'2 4.5
2018-Apr-20 08:00N 47°36' W 052°42'225.5 230 / 31010.2 1.4-0.5
2018-Apr-20 07:54N 47°34' W 052°42'0 0.0
2018-Apr-20 07:30N 47°34' W 052°42'0 0.0
2018-Apr-20 07:00N 47°34' W 052°42'2210.5
2018-Apr-20 07:00N 47°36' W 052°42'2 4.7 220 / 61010.3 1.6-0.8
2018-Apr-20 06:30N 47°34' W 052°42'2 4.5
2018-Apr-20 06:00N 47°36' W 052°42'225.6 220 / 61010.8 2.0-0.7
2018-Apr-20 05:54N 47°34' W 052°42'0 0.0
2018-Apr-20 05:30N 47°34' W 052°42'2 4.5
2018-Apr-20 05:00N 47°36' W 052°42'225.5 220 / 41010.5 2.3-0.7
2018-Apr-20 04:54N 47°34' W 052°42'0 0.0
2018-Apr-20 04:18N 47°34' W 052°42'2 7.3
2018-Apr-20 04:00N 47°36' W 052°42'257.8 210 / 51010.2 3.6-0.2
2018-Apr-20 03:57N 47°34' W 052°42'0 0.0
2018-Apr-20 03:30N 47°34' W 052°42'2 4.5
2018-Apr-20 03:00N 47°36' W 052°42'225.4 210 / 51010.4 3.8-0.2
2018-Apr-20 02:54N 47°34' W 052°42'0 0.0
2018-Apr-20 02:30N 47°34' W 052°42'2 4.5
2018-Apr-20 02:00N 47°36' W 052°42'225.6 230 / 41010.4 3.1-0.5
2018-Apr-20 01:54N 47°34' W 052°42'0 0.0
2018-Apr-20 01:24N 47°34' W 052°42'0 0.0
2018-Apr-20 01:00N 47°34' W 052°42'2210.5
2018-Apr-20 01:00N 47°36' W 052°42'2 3.1 220 / 91009.5 3.8-0.1
2018-Apr-20 00:15N 47°34' W 052°42'0 0.0
2018-Apr-20 00:00N 47°34' W 052°42'2216.1
2018-Apr-20 00:00N 47°36' W 052°42'2 4.7 220 / 111009.5 4.4 0.1
2018-Apr-19 23:30N 47°34' W 052°42'0 0.0
2018-Apr-19 23:00N 47°34' W 052°42'2216.0
2018-Apr-19 23:00N 47°36' W 052°42'2 3.3 220 / 111007.8 5.1 0.4
2018-Apr-19 22:18N 47°34' W 052°42'2 7.3
2018-Apr-19 22:00N 47°36' W 052°42'225.5 220 / 101007.1 6.6 0.9
2018-Apr-19 21:54N 47°34' W 052°42'0 0.0
2018-Apr-19 21:27N 47°34' W 052°42'0 0.0
2018-Apr-19 21:00N 47°34' W 052°42'2216.1
2018-Apr-19 21:00N 47°36' W 052°42'2 4.7 220 / 131006.1 7.1 0.5
2018-Apr-19 20:30N 47°34' W 052°42'0 0.0
2018-Apr-19 20:00N 47°34' W 052°42'2210.5
2018-Apr-19 20:00N 47°36' W 052°42'2 3.6 220 / 101005.6 8.0 0.1
2018-Apr-19 19:21N 47°34' W 052°42'2 6.3
2018-Apr-19 19:00N 47°36' W 052°42'257.8 230 / 121005.5 8.3 0.2
2018-Apr-19 18:57N 47°34' W 052°42'0 0.0
2018-Apr-19 18:26N 47°34' W 052°42'0 0.0
2018-Apr-19 18:00N 47°34' W 052°42'2200.2
2018-Apr-19 18:00N 47°36' W 052°42'2 4.6 220 / 171004.8 8.2 0.2
2018-Apr-19 17:30N 47°34' W 052°42'2 4.5
2018-Apr-19 17:00N 47°36' W 052°42'2139.1 230 / 131004.8 8.2 0.1
2018-Apr-19 16:59N 47°34' W 052°42'0 0.0
2018-Apr-19 16:27N 47°34' W 052°42'2 4.9
2018-Apr-19 16:00N 47°36' W 052°42'245.9 220 / 141004.5 7.5 0.8
2018-Apr-19 15:57N 47°34' W 052°42'0 0.0
2018-Apr-19 15:30N 47°34' W 052°42'2 4.5
2018-Apr-19 15:00N 47°36' W 052°42'263.2 220 / 141004.2 6.4 1.2
2018-Apr-19 14:57N 47°34' W 052°42'0 0.0
2018-Apr-19 14:26N 47°34' W 052°42'2 5.2
2018-Apr-19 14:00N 47°36' W 052°42'2139.2 220 / 161004.6 4.6 1.3
2018-Apr-19 13:59N 47°34' W 052°42'0 0.0
2018-Apr-19 13:28N 47°34' W 052°42'0 0.0
2018-Apr-19 12:57N 47°34' W 052°42'0 0.0
2018-Apr-19 12:26N 47°34' W 052°42'0 0.0
2018-Apr-19 12:00N 47°34' W 052°42'2264.9
2018-Apr-19 12:00N 47°36' W 052°42'2 4.6 220 / 121003.9 3.7 0.7
2018-Apr-19 11:30N 47°34' W 052°42'2 4.5
2018-Apr-19 11:00N 47°36' W 052°42'2139.2 220 / 111003.6 3.4 0.5
2018-Apr-19 10:59N 47°34' W 052°42'0 0.0
2018-Apr-19 10:28N 47°34' W 052°42'2 4.9
2018-Apr-19 10:00N 47°36' W 052°42'259.1 220 / 101003.3 3.5 0.1
2018-Apr-19 09:57N 47°34' W 052°42'0 0.0
2018-Apr-19 09:26N 47°34' W 052°42'2 5.1
2018-Apr-19 09:00N 47°36' W 052°42'253.9 210 / 101002.7 2.6 0.1
2018-Apr-19 08:57N 47°34' W 052°42'4 7.0
2018-Apr-19 08:27N 47°35' W 052°37'2 3.5
2018-Apr-19 08:00N 47°36' W 052°36'6 6.0 230 / 171001.9 2.7-0.1
2018-Apr-19 07:00N 47°42' W 052°36'1212.0 230 / 241001.3 2.5-0.0
2018-Apr-19 06:00N 47°54' W 052°36'4 4.0 230 / 241001.1 2.8 1.6
2018-Apr-19 05:00N 47°54' W 052°42'1818.0 230 / 22999.9 1.6 0.5
2018-Apr-19 04:00N 48°12' W 052°42'6 6.0 220 / 30999.1 2.3 1.6
2018-Apr-19 03:00N 48°18' W 052°42'1212.0 240 / 26997.7 1.6 1.1
2018-Apr-19 02:00N 48°30' W 052°42'1212.0 230 / 24996.7 1.0 0.5
2018-Apr-19 01:00N 48°42' W 052°42'10 9.9 230 / 18996.6 0.5 0.1
2018-Apr-19 00:00N 48°48' W 052°54'6 6.0 170 / 11997.0 -0.1-0.5
2018-Apr-18 23:00N 48°54' W 052°54'1414.4 150 / 9996.8 -0.2-0.7
2018-Apr-18 22:00N 49°06' W 053°06'1312.6 130 / 8997.4 -0.4-0.9
2018-Apr-18 21:00N 49°18' W 053°12'7 7.2 120 / 16997.8 -0.7-1.2
2018-Apr-18 20:00N 49°24' W 053°18'1211.7 120 / 25999.2 -0.8-1.4
2018-Apr-18 19:00N 49°24' W 053°36'10 9.8 130 / 241000.0 -0.8-1.3
2018-Apr-18 18:00N 49°30' W 053°48'4 3.9 120 / 281000.9 -1.0-1.5
2018-Apr-18 17:00N 49°30' W 053°54'1211.7 110 / 291002.4 -0.7-1.3
2018-Apr-18 16:00N 49°30' W 054°12'10 4.9 110 / 181003.5 -0.3-0.9
2018-Apr-18 14:00N 49°36' W 054°24'4 3.9 110 / 71006.4 -1.1-1.9
2018-Apr-18 13:00N 49°36' W 054°30'0 0.0 130 / 101007.8 -0.5-1.4
2018-Apr-18 12:00N 49°36' W 054°30'0 0.0 120 / 201009.1 -0.4-1.8
2018-Apr-18 11:00N 49°36' W 054°30'0 0.0 090 / 111010.9 -1.4-3.1
2018-Apr-18 10:00N 49°36' W 054°30'7 7.1 110 / 161012.4 -1.7-3.5
2018-Apr-18 09:00N 49°42' W 054°36'0 0.0 110 / 221012.9 -1.5-4.1
2018-Apr-18 08:00N 49°42' W 054°36'4 3.9 100 / 181014.4 -1.9-4.1
2018-Apr-18 07:00N 49°42' W 054°42'10 9.8 110 / 171015.6 -2.1-4.3
2018-Apr-18 06:00N 49°48' W 054°54'7 7.1 110 / 211016.4 -2.1-4.6
2018-Apr-18 05:00N 49°54' W 055°00'1211.6 110 / 181016.8 -2.2-4.8
2018-Apr-18 04:00N 49°54' W 055°18'1313.0 100 / 161018.2 -2.5-4.7
2018-Apr-18 03:00N 50°00' W 055°36'6 6.0 110 / 71019.7 -2.3-5.5
2018-Apr-18 02:00N 49°54' W 055°36'6 6.0 130 / 91020.4 -2.7-5.9
2018-Apr-18 01:00N 50°00' W 055°36'1212.0 080 / 151021.0 -2.8-6.2
2018-Apr-18 00:00N 50°12' W 055°36'6 6.0 080 / 111022.0 -2.9-6.5
2018-Apr-17 23:00N 50°18' W 055°36'7 7.1 090 / 101022.0 -3.0-6.9
2018-Apr-17 22:00N 50°24' W 055°30'6 6.0 070 / 91022.3 -3.1-7.3
2018-Apr-17 21:00N 50°30' W 055°30'4 3.8 100 / 61023.0 -2.7-7.2
2018-Apr-17 20:00N 50°30' W 055°24'6 6.0 110 / 31023.5 -2.8-7.6
2018-Apr-17 19:00N 50°24' W 055°24'1818.0 080 / 51023.5 -3.1-7.1
2018-Apr-17 18:00N 50°06' W 055°24'1312.6 080 / 71023.3 -2.8-6.7
2018-Apr-17 17:00N 49°54' W 055°30'1414.3 070 / 131023.2 -2.2-5.9
2018-Apr-17 16:00N 49°42' W 055°42'1615.5 080 / 121023.2 -1.6-7.2
2018-Apr-17 15:00N 49°42' W 056°06'7 2.4 040 / 91023.3 1.1-6.6
2018-Apr-17 12:00N 49°36' W 056°12'0 0.0 150 / 31024.6 0.1-9.3
2018-Apr-17 11:00N 49°36' W 056°12'0 0.0 240 / 41024.9 -0.8-9.8
2018-Apr-17 10:00N 49°36' W 056°12'0 0.0 240 / 61025.0 -3.7-11.0
2018-Apr-17 09:00N 49°36' W 056°12'0 0.0 190 / 31025.1 -3.5-11.7
2018-Apr-17 08:00N 49°36' W 056°12'0 0.0 250 / 61025.0 -3.1-11.6
2018-Apr-17 07:00N 49°36' W 056°12'0 0.0 290 / 141024.8 -2.6-12.6
2018-Apr-17 06:00N 49°36' W 056°12'0 0.0 230 / 61025.2 -2.8-12.7
2018-Apr-17 05:00N 49°36' W 056°12'0 0.0 250 / 41025.3 -2.6-12.6
2018-Apr-17 04:00N 49°36' W 056°12'0 0.0 190 / 81025.2 0.9-10.6
2018-Apr-17 03:00N 49°36' W 056°12'0 0.0 280 / 191024.5 -1.4-13.4
2018-Apr-17 02:00N 49°36' W 056°12'0 0.0 280 / 221024.5 -1.1-13.5
2018-Apr-17 01:00N 49°36' W 056°12'0 0.0 260 / 161025.5 -1.6-12.6
2018-Apr-17 00:00N 49°36' W 056°12'0 0.0 190 / 71026.7 -1.4-12.3
2018-Apr-16 23:00N 49°36' W 056°12'0 0.0 220 / 41026.9 -0.4-12.0
2018-Apr-16 22:00N 49°36' W 056°12'0 0.0 280 / 121026.9 0.8-11.4
2018-Apr-16 21:00N 49°36' W 056°12'4 3.9 300 / 101026.9 1.0-12.9
2018-Apr-16 20:00N 49°36' W 056°06'0 0.0 280 / 91027.0 0.8-11.8
2018-Apr-16 19:00N 49°36' W 056°06'7 7.1 290 / 131027.1 0.7-11.8
2018-Apr-16 18:00N 49°42' W 056°00'10 9.8 280 / 221027.4 -0.6-10.9
2018-Apr-16 17:00N 49°36' W 055°48'10 9.8 310 / 121027.8 -0.2-11.4
2018-Apr-16 16:00N 49°30' W 056°00'7 7.2 290 / 161028.1 0.1-11.2
2018-Apr-16 15:00N 49°24' W 056°06'0 0.0 310 / 51029.2 5.0-8.1
2018-Apr-16 14:00N 49°24' W 056°06'0 0.0 320 / 111029.9 0.7-11.0
2018-Apr-16 13:00N 49°24' W 056°06'0 0.0 320 / 101030.4 -0.0-11.1
2018-Apr-16 12:00N 49°24' W 056°06'6 6.0 310 / 71030.5 4.8-7.8
2018-Apr-16 11:00N 49°30' W 056°06'6 6.0 170 / 41030.2 -3.7-9.1
2018-Apr-16 10:00N 49°24' W 056°06'0 0.0 190 / 81030.6 -4.2-8.9
2018-Apr-16 09:00N 49°24' W 056°06'0 0.0 150 / 31030.5 -4.9-8.3
2018-Apr-16 08:00N 49°24' W 056°06'0 0.0 170 / 11030.4 -5.0-8.7
2018-Apr-16 07:00N 49°24' W 056°06'   170 / 11030.6 -4.2-8.3

Dump ship's entire track history